sensor_id;sensor_type;location;lat;lon;timestamp;pressure;altitude;pressure_sealevel;temperature;humidity
61744;BME280;48718;54.994;73.352;2022-08-21T00:01:27;100765.63;;;24.58;42.33
61744;BME280;48718;54.994;73.352;2022-08-21T00:04:04;100768.34;;;24.58;42.65
61744;BME280;48718;54.994;73.352;2022-08-21T00:08:32;100767.81;;;24.56;42.06
61744;BME280;48718;54.994;73.352;2022-08-21T00:10:59;100780.41;;;24.57;42.15
61744;BME280;48718;54.994;73.352;2022-08-21T00:13:35;100776.03;;;24.56;42.00
61744;BME280;48718;54.994;73.352;2022-08-21T00:16:12;100768.91;;;24.55;42.41
61744;BME280;48718;54.994;73.352;2022-08-21T00:18:39;100778.22;;;24.54;42.56
61744;BME280;48718;54.994;73.352;2022-08-21T00:21:16;100767.28;;;24.54;42.36
61744;BME280;48718;54.994;73.352;2022-08-21T00:23:54;100767.81;;;24.56;41.95
61744;BME280;48718;54.994;73.352;2022-08-21T00:26:31;100773.28;;;24.56;42.38
61744;BME280;48718;54.994;73.352;2022-08-21T00:28:57;100766.72;;;24.57;41.95
61744;BME280;48718;54.994;73.352;2022-08-21T00:31:24;100769.16;;;24.59;42.29
61744;BME280;48718;54.994;73.352;2022-08-21T00:33:55;100762.88;;;24.58;42.20
61744;BME280;48718;54.994;73.352;2022-08-21T00:36:22;100770.56;;;24.56;42.16
61744;BME280;48718;54.994;73.352;2022-08-21T00:38:58;100768.63;;;24.57;41.88
61744;BME280;48718;54.994;73.352;2022-08-21T00:41:36;100773.00;;;24.58;42.31
61744;BME280;48718;54.994;73.352;2022-08-21T00:44:04;100767.81;;;24.56;42.26
61744;BME280;48718;54.994;73.352;2022-08-21T00:46:32;100765.63;;;24.58;41.99
61744;BME280;48718;54.994;73.352;2022-08-21T00:49:05;100773.81;;;24.58;41.96
61744;BME280;48718;54.994;73.352;2022-08-21T00:51:38;100766.72;;;24.57;42.27
61744;BME280;48718;54.994;73.352;2022-08-21T00:54:06;100761.25;;;24.57;42.06
61744;BME280;48718;54.994;73.352;2022-08-21T00:56:34;100769.16;;;24.59;42.07
61744;BME280;48718;54.994;73.352;2022-08-21T00:59:01;100764.53;;;24.60;42.09
61744;BME280;48718;54.994;73.352;2022-08-21T01:01:28;100775.47;;;24.60;42.22
61744;BME280;48718;54.994;73.352;2022-08-21T01:06:13;100772.44;;;24.61;41.86
61744;BME280;48718;54.994;73.352;2022-08-21T01:08:50;100768.34;;;24.58;41.91
61744;BME280;48718;54.994;73.352;2022-08-21T01:11:27;100765.88;;;24.62;41.81
61744;BME280;48718;54.994;73.352;2022-08-21T01:13:54;100767.81;;;24.62;41.73
61744;BME280;48718;54.994;73.352;2022-08-21T01:16:32;100763.13;;;24.62;42.06
61744;BME280;48718;54.994;73.352;2022-08-21T01:18:59;100774.06;;;24.62;41.95
61744;BME280;48718;54.994;73.352;2022-08-21T01:23:49;100771.34;;;24.62;41.70
61744;BME280;48718;54.994;73.352;2022-08-21T01:26:32;100767.81;;;24.62;41.73
61744;BME280;48718;54.994;73.352;2022-08-21T01:29:12;100773.81;;;24.64;41.87
61744;BME280;48718;54.994;73.352;2022-08-21T01:31:41;100772.97;;;24.63;41.70
61744;BME280;48718;54.994;73.352;2022-08-21T01:34:08;100768.34;;;24.64;41.65
61744;BME280;48718;54.994;73.352;2022-08-21T01:40:16;100760.13;;;24.64;41.45
61744;BME280;48718;54.994;73.352;2022-08-21T01:42:44;100755.75;;;24.63;41.76
61744;BME280;48718;54.994;73.352;2022-08-21T01:45:11;100752.19;;;24.62;41.83
61744;BME280;48718;54.994;73.352;2022-08-21T01:47:44;100756.84;;;24.62;42.01
61744;BME280;48718;54.994;73.352;2022-08-21T01:50:13;100753.28;;;24.61;41.51
61744;BME280;48718;54.994;73.352;2022-08-21T01:52:40;100766.16;;;24.61;41.79
61744;BME280;48718;54.994;73.352;2022-08-21T01:55:08;100753.03;;;24.57;41.59
61744;BME280;48718;54.994;73.352;2022-08-21T01:57:46;100764.78;;;24.58;41.82
61744;BME280;48718;54.994;73.352;2022-08-21T02:00:15;100757.41;;;24.58;41.46
61744;BME280;48718;54.994;73.352;2022-08-21T02:02:42;100765.09;;;24.56;41.33
61744;BME280;48718;54.994;73.352;2022-08-21T02:05:14;100756.88;;;24.56;41.14
61744;BME280;48718;54.994;73.352;2022-08-21T02:07:52;100762.88;;;24.58;41.41
61744;BME280;48718;54.994;73.352;2022-08-21T02:10:24;100765.09;;;24.56;41.24
61744;BME280;48718;54.994;73.352;2022-08-21T02:12:58;100757.97;;;24.55;41.74
61744;BME280;48718;54.994;73.352;2022-08-21T02:15:27;100761.81;;;24.54;42.14
61744;BME280;48718;54.994;73.352;2022-08-21T02:17:56;100757.97;;;24.55;42.10
61744;BME280;48718;54.994;73.352;2022-08-21T02:20:36;100762.91;;;24.53;42.96
61744;BME280;48718;54.994;73.352;2022-08-21T02:23:04;100765.38;;;24.50;42.86
61744;BME280;48718;54.994;73.352;2022-08-21T02:25:31;100751.97;;;24.48;43.58
61744;BME280;48718;54.994;73.352;2022-08-21T02:28:13;100755.81;;;24.47;43.67
61744;BME280;48718;54.994;73.352;2022-08-21T02:30:48;100752.28;;;24.47;44.13
61744;BME280;48718;54.994;73.352;2022-08-21T02:33:19;100748.16;;;24.44;44.46
61744;BME280;48718;54.994;73.352;2022-08-21T02:35:57;100743.78;;;24.43;45.10
61744;BME280;48718;54.994;73.352;2022-08-21T02:38:28;100752.53;;;24.45;45.95
61744;BME280;48718;54.994;73.352;2022-08-21T02:40:56;100749.53;;;24.47;46.18
61744;BME280;48718;54.994;73.352;2022-08-21T02:43:24;100754.44;;;24.50;46.30
61744;BME280;48718;54.994;73.352;2022-08-21T02:45:53;100748.44;;;24.53;46.32
61744;BME280;48718;54.994;73.352;2022-08-21T02:48:23;100748.44;;;24.53;46.73
61744;BME280;48718;54.994;73.352;2022-08-21T02:51:05;100747.03;;;24.55;46.47
61744;BME280;48718;54.994;73.352;2022-08-21T02:53:34;100752.22;;;24.57;46.63
61744;BME280;48718;54.994;73.352;2022-08-21T02:56:03;100751.41;;;24.56;46.65
61744;BME280;48718;54.994;73.352;2022-08-21T02:58:34;100761.25;;;24.57;46.35
61744;BME280;48718;54.994;73.352;2022-08-21T03:01:01;100760.16;;;24.58;46.70
61744;BME280;48718;54.994;73.352;2022-08-21T03:03:28;100757.13;;;24.60;46.57
61744;BME280;48718;54.994;73.352;2022-08-21T03:05:55;100752.50;;;24.61;46.78
61744;BME280;48718;54.994;73.352;2022-08-21T03:08:27;100751.38;;;24.62;46.26
61744;BME280;48718;54.994;73.352;2022-08-21T03:11:51;100761.78;;;24.65;46.38
61744;BME280;48718;54.994;73.352;2022-08-21T03:14:18;100757.94;;;24.66;46.17
61744;BME280;48718;54.994;73.352;2022-08-21T03:16:50;100759.03;;;24.65;46.37
61744;BME280;48718;54.994;73.352;2022-08-21T03:19:17;100759.84;;;24.65;46.04
61744;BME280;48718;54.994;73.352;2022-08-21T03:21:44;100767.25;;;24.65;46.63
61744;BME280;48718;54.994;73.352;2022-08-21T03:24:10;100770.25;;;24.63;46.33
61744;BME280;48718;54.994;73.352;2022-08-21T03:26:42;100764.78;;;24.63;46.06
61744;BME280;48718;54.994;73.352;2022-08-21T03:31:36;100773.81;;;24.64;46.10
61744;BME280;48718;54.994;73.352;2022-08-21T03:35:18;100772.72;;;24.65;46.20
61744;BME280;48718;54.994;73.352;2022-08-21T03:37:51;100773.25;;;24.67;45.97
61744;BME280;48718;54.994;73.352;2022-08-21T03:40:24;100776.53;;;24.69;46.18
61744;BME280;48718;54.994;73.352;2022-08-21T03:42:52;100780.06;;;24.69;46.11
61744;BME280;48718;54.994;73.352;2022-08-21T03:45:20;100777.06;;;24.71;46.09
61744;BME280;48718;54.994;73.352;2022-08-21T03:47:58;100784.22;;;24.72;45.65
61744;BME280;48718;54.994;73.352;2022-08-21T03:50:29;100781.47;;;24.72;45.54
61744;BME280;48718;54.994;73.352;2022-08-21T03:52:56;100784.22;;;24.72;45.56
61744;BME280;48718;54.994;73.352;2022-08-21T03:55:24;100780.41;;;24.57;45.93
61744;BME280;48718;54.994;73.352;2022-08-21T03:57:51;100783.16;;;24.47;46.28
61744;BME280;48718;54.994;73.352;2022-08-21T04:00:21;100781.81;;;24.39;46.32
61744;BME280;48718;54.994;73.352;2022-08-21T04:02:49;100785.09;;;24.36;46.39
61744;BME280;48718;54.994;73.352;2022-08-21T04:05:19;100783.47;;;24.35;46.47
61744;BME280;48718;54.994;73.352;2022-08-21T04:08:09;100784.56;;;24.34;46.57
61744;BME280;48718;54.994;73.352;2022-08-21T04:10:37;100790.88;;;24.35;46.59
61744;BME280;48718;54.994;73.352;2022-08-21T04:13:18;100795.50;;;24.34;46.63
61744;BME280;48718;54.994;73.352;2022-08-21T04:15:57;100784.56;;;24.34;46.60
61744;BME280;48718;54.994;73.352;2022-08-21T04:18:31;100790.88;;;24.35;46.39
61744;BME280;48718;54.994;73.352;2022-08-21T04:21:03;100789.22;;;24.34;46.42
61744;BME280;48718;54.994;73.352;2022-08-21T04:23:30;100788.38;;;24.33;46.89
61744;BME280;48718;54.994;73.352;2022-08-21T04:25:57;100790.88;;;24.35;46.86
61744;BME280;48718;54.994;73.352;2022-08-21T04:28:25;100793.06;;;24.33;46.48
61744;BME280;48718;54.994;73.352;2022-08-21T04:30:58;100801.25;;;24.33;46.40
61744;BME280;48718;54.994;73.352;2022-08-21T04:33:49;100791.66;;;24.35;46.87
61744;BME280;48718;54.994;73.352;2022-08-21T04:36:17;100796.34;;;24.35;46.86
61744;BME280;48718;54.994;73.352;2022-08-21T04:38:43;100792.22;;;24.32;46.27
61744;BME280;48718;54.994;73.352;2022-08-21T04:43:54;100802.91;;;24.28;46.99
61744;BME280;48718;54.994;73.352;2022-08-21T04:46:24;100801.25;;;24.27;46.63
61744;BME280;48718;54.994;73.352;2022-08-21T04:48:51;100802.06;;;24.28;46.68
61744;BME280;48718;54.994;73.352;2022-08-21T04:51:32;100800.16;;;24.28;46.84
61744;BME280;48718;54.994;73.352;2022-08-21T04:54:12;100798.53;;;24.27;46.92
61744;BME280;48718;54.994;73.352;2022-08-21T04:56:56;100794.69;;;24.28;46.84
61744;BME280;48718;54.994;73.352;2022-08-21T05:01:42;100802.25;;;24.63;45.85
61744;BME280;48718;54.994;73.352;2022-08-21T05:08:26;100793.97;;;24.88;45.62
61744;BME280;48718;54.994;73.352;2022-08-21T05:23:14;100793.06;;;23.91;46.71
61744;BME280;48718;54.994;73.352;2022-08-21T05:28:06;100787.59;;;23.81;46.78
61744;BME280;48718;54.994;73.352;2022-08-21T07:07:11;100785.97;;;23.59;45.73
61744;BME280;48718;54.994;73.352;2022-08-21T08:03:26;100833.44;;;23.37;45.53
61744;BME280;48718;54.994;73.352;2022-08-21T08:51:55;100847.06;;;23.32;44.81
61744;BME280;48718;54.994;73.352;2022-08-21T09:01:45;100853.09;;;23.39;44.72
